Time;durP1;ratioP1;P1;durP2;ratioP2;P2;SDS_P1;SDS_P2;PMS_P1;PMS_P2;Temp;Humidity;BMP_temperature;BMP_pressure;BME280_temperature;BME280_humidity;BME280_pressure;Samples;Min_cycle;Max_cycle;Signal;HPM_P1;HPM_P2
2022/03/16 00:47:36;;;;;;;51.05;25.13;;;4.70;99.90;;;;;;6002022;23;20023;-43
2022/03/16 01:27:45;;;;;;;43.33;23.52;;;4.10;99.90;;;;;;6032080;23;20541;-43
2022/03/16 01:30:33;;;;;;;42.85;23.67;;;4.10;99.90;;;;;;6028132;23;20055;-43
2022/03/16 01:50:08;;;;;;;40.72;21.33;;;3.90;99.90;;;;;;6030166;23;20026;-44
2022/03/16 01:52:55;;;;;;;39.53;22.50;;;3.90;99.90;;;;;;5895597;24;20047;-43
2022/03/16 02:06:38;;;;;;;41.13;22.73;;;3.90;99.90;;;;;;5888680;24;20029;-43
2022/03/16 02:20:21;;;;;;;49.67;27.15;;;3.80;99.90;;;;;;5914052;24;20057;-43
2022/03/16 02:30:49;;;;;;;46.28;24.15;;;3.70;99.90;;;;;;5974472;23;20091;-43
2022/03/16 02:34:06;;;;;;;43.60;23.80;;;3.70;99.90;;;;;;5975209;23;20447;-44
2022/03/16 02:37:32;;;;;;;45.55;23.58;;;3.70;99.90;;;;;;5975841;23;20020;-44
2022/03/16 02:40:59;;;;;;;46.05;22.52;;;3.70;99.90;;;;;;5977484;23;20019;-44
2022/03/16 02:44:24;;;;;;;45.60;23.98;;;3.70;99.90;;;;;;5975010;23;20019;-43
2022/03/16 02:47:50;;;;;;;38.60;20.80;;;3.70;99.90;;;;;;5998902;23;20507;-43
2022/03/16 02:51:16;;;;;;;30.10;18.48;;;3.70;99.90;;;;;;5973509;23;20023;-43
2022/03/16 02:54:41;;;;;;;51.08;25.77;;;3.70;99.90;;;;;;5999283;23;20028;-43
2022/03/16 02:58:10;;;;;;;52.08;25.13;;;3.60;99.90;;;;;;6002884;23;20769;-44
2022/03/16 03:01:35;;;;;;;40.35;22.23;;;4.10;99.90;;;;;;5974847;23;20059;-43
2022/03/16 03:05:00;;;;;;;43.38;23.42;;;3.60;99.90;;;;;;6001076;23;20102;-43
2022/03/16 03:08:26;;;;;;;49.60;25.77;;;3.50;99.90;;;;;;5972775;23;20066;-43
2022/03/16 03:11:56;;;;;;;49.78;26.33;;;3.50;99.90;;;;;;6000760;23;20020;-43
2022/03/16 03:15:18;;;;;;;39.83;21.73;;;3.50;99.90;;;;;;6000560;23;20027;-44
2022/03/16 03:18:45;;;;;;;33.15;18.67;;;3.50;99.90;;;;;;6001799;23;20070;-43
2022/03/16 03:22:12;;;;;;;30.70;18.75;;;3.30;99.90;;;;;;5953239;23;20422;-43
2022/03/16 03:25:37;;;;;;;38.13;20.70;;;3.20;99.90;;;;;;5975132;23;20078;-43
2022/03/16 03:29:03;;;;;;;36.38;19.30;;;3.10;99.90;;;;;;5998164;23;20100;-43
2022/03/16 03:32:30;;;;;;;35.92;20.13;;;3.10;99.90;;;;;;5997175;23;20331;-43
2022/03/16 03:35:55;;;;;;;36.47;20.50;;;3.10;99.90;;;;;;5997668;23;20023;-43
2022/03/16 03:39:21;;;;;;;46.97;23.20;;;3.10;99.90;;;;;;5975986;23;20022;-43
2022/03/16 03:42:48;;;;;;;37.28;21.85;;;3.10;99.90;;;;;;5973620;23;20015;-43
2022/03/16 03:46:11;;;;;;;38.25;20.45;;;3.10;99.90;;;;;;5998809;23;20083;-44
2022/03/16 04:37:47;;;;;;;58.90;27.83;;;3.10;99.90;;;;;;6004952;23;20060;-43
2022/03/16 04:41:10;;;;;;;57.30;28.05;;;3.10;99.90;;;;;;5979073;23;20019;-43
2022/03/16 05:18:59;;;;;;;48.20;24.05;;;2.50;99.90;;;;;;6029945;23;20024;-44
2022/03/16 05:32:43;;;;;;;47.63;24.58;;;2.70;99.90;;;;;;6031636;23;20459;-43
2022/03/16 05:45:07;;;;;;;56.88;28.88;;;2.90;99.90;;;;;;6019960;23;20087;-43
2022/03/16 05:48:10;;;;;;;57.95;27.48;;;2.90;99.90;;;;;;6007823;23;20023;-43
2022/03/16 06:25:58;;;;;;;70.65;32.25;;;3.10;99.90;;;;;;6027939;23;20108;-43
2022/03/16 06:32:58;;;;;;;61.95;30.58;;;3.20;99.90;;;;;;5975882;23;20034;-43
2022/03/16 06:36:18;;;;;;;68.60;31.50;;;3.20;99.90;;;;;;5972536;23;20068;-43
2022/03/16 06:39:43;;;;;;;71.85;32.97;;;3.20;99.90;;;;;;5999655;23;20075;-43
2022/03/16 06:43:10;;;;;;;62.00;29.98;;;3.30;99.90;;;;;;5950162;23;20051;-43
2022/03/16 06:46:37;;;;;;;62.75;29.83;;;3.40;99.90;;;;;;5998322;23;20020;-43
2022/03/16 06:50:00;;;;;;;55.97;27.20;;;3.40;99.90;;;;;;5954396;23;20095;-43
2022/03/16 06:53:30;;;;;;;54.53;27.98;;;3.50;99.90;;;;;;5954262;23;20026;-43
2022/03/16 06:56:55;;;;;;;59.45;27.42;;;3.60;99.90;;;;;;6000592;23;20110;-43
2022/03/16 07:00:24;;;;;;;47.72;25.08;;;3.60;99.90;;;;;;5975180;23;20447;-43
2022/03/16 07:03:46;;;;;;;54.25;25.83;;;3.60;99.90;;;;;;5973673;23;20022;-43
2022/03/16 07:07:12;;;;;;;54.20;27.48;;;3.70;99.90;;;;;;5975386;23;20371;-43
2022/03/16 07:10:38;;;;;;;58.13;28.92;;;3.80;99.90;;;;;;5977062;23;20110;-43
2022/03/16 07:17:50;;;;;;;56.50;29.25;;;4.00;99.90;;;;;;5891478;24;20061;-43
2022/03/16 07:21:05;;;;;;;56.08;29.38;;;4.10;99.90;;;;;;5890864;24;20017;-43
2022/03/16 07:24:25;;;;;;;63.42;31.35;;;4.20;99.90;;;;;;5889931;24;20024;-43
2022/03/16 07:27:50;;;;;;;62.38;31.20;;;4.30;99.90;;;;;;5900493;24;20099;-44
2022/03/16 07:31:13;;;;;;;63.60;30.58;;;4.30;99.90;;;;;;5941774;24;20021;-44
2022/03/16 07:36:43;;;;;;;56.70;30.35;;;4.60;99.90;;;;;;5981705;23;20413;-44
2022/03/16 07:39:51;;;;;;;61.75;33.13;;;4.80;99.90;;;;;;5995443;23;20408;-44
2022/03/16 08:41:36;;;;;;;42.47;26.52;;;9.30;99.90;;;;;;6002341;23;20040;-45
2022/03/16 08:58:48;;;;;;;38.78;23.27;;;9.40;99.90;;;;;;5976362;23;20050;-46
2022/03/16 09:29:47;;;;;;;31.45;21.02;;;10.80;99.90;;;;;;6030931;23;20115;-47
2022/03/16 09:33:10;;;;;;;31.52;21.20;;;11.00;99.90;;;;;;6028797;23;20046;-45
2022/03/16 09:36:37;;;;;;;30.58;21.15;;;11.20;99.90;;;;;;6005326;23;20387;-44
2022/03/16 09:40:03;;;;;;;29.70;21.05;;;11.40;99.90;;;;;;5979770;23;20023;-45
2022/03/16 09:43:32;;;;;;;32.40;20.75;;;11.60;99.90;;;;;;5982140;23;20098;-45
2022/03/16 09:46:56;;;;;;;35.17;21.02;;;11.90;99.90;;;;;;6004380;23;20091;-47
2022/03/16 09:50:20;;;;;;;30.85;20.13;;;11.90;99.90;;;;;;6006239;23;20464;-46
2022/03/16 09:53:46;;;;;;;30.52;19.00;;;11.80;99.90;;;;;;6030416;23;20098;-45
2022/03/16 09:57:18;;;;;;;29.13;18.58;;;11.70;99.90;;;;;;5980183;23;20043;-46
2022/03/16 10:00:38;;;;;;;33.33;20.67;;;11.80;99.90;;;;;;6026051;23;20103;-45
2022/03/16 10:04:06;;;;;;;29.40;19.48;;;12.00;99.90;;;;;;6026809;23;20083;-45
2022/03/16 10:07:29;;;;;;;26.90;16.45;;;12.30;99.90;;;;;;6007261;23;20030;-45
2022/03/16 10:14:24;;;;;;;26.58;15.88;;;12.50;99.90;;;;;;6030979;23;20146;-45
2022/03/16 10:17:47;;;;;;;20.90;13.57;;;12.60;99.90;;;;;;6004802;23;20019;-46
2022/03/16 10:24:55;;;;;;;18.65;13.45;;;12.90;99.90;;;;;;6005767;23;20082;-46
2022/03/16 10:28:12;;;;;;;17.02;12.75;;;13.10;99.90;;;;;;6005092;23;20520;-46
2022/03/16 10:31:35;;;;;;;20.15;11.93;;;13.20;99.90;;;;;;6005846;23;20125;-48
2022/03/16 10:34:58;;;;;;;18.48;12.20;;;13.10;99.90;;;;;;6005322;23;20099;-49
2022/03/16 10:38:24;;;;;;;17.65;12.30;;;13.10;99.90;;;;;;6005802;23;20085;-48
2022/03/16 10:48:53;;;;;;;17.23;12.35;;;13.40;99.90;;;;;;6033045;23;20027;-45
2022/03/16 10:52:11;;;;;;;19.33;13.15;;;13.40;99.90;;;;;;5982810;23;20027;-45
2022/03/16 10:55:35;;;;;;;22.77;13.10;;;13.40;99.90;;;;;;5983988;23;20125;-46
2022/03/16 10:59:01;;;;;;;19.33;13.57;;;13.30;99.90;;;;;;6030696;23;20041;-45
2022/03/16 11:02:29;;;;;;;21.30;14.75;;;13.30;99.90;;;;;;5980036;23;20031;-46
2022/03/16 11:05:53;;;;;;;18.30;12.95;;;13.30;99.90;;;;;;6003644;23;20110;-46
2022/03/16 11:09:19;;;;;;;17.80;13.23;;;13.20;99.90;;;;;;6004499;23;20026;-46
2022/03/16 11:16:12;;;;;;;16.23;11.27;;;13.20;99.90;;;;;;6002342;23;20023;-47
2022/03/16 11:19:38;;;;;;;17.23;10.75;;;13.40;99.90;;;;;;6003642;23;20318;-47
2022/03/16 11:26:40;;;;;;;17.83;11.05;;;13.80;99.90;;;;;;6029210;23;20027;-46
2022/03/16 11:29:58;;;;;;;18.35;12.10;;;14.00;99.90;;;;;;6000320;23;20034;-47
2022/03/16 11:33:24;;;;;;;20.42;12.07;;;14.10;99.90;;;;;;5999351;23;20067;-46
2022/03/16 11:36:50;;;;;;;19.70;12.65;;;14.10;99.90;;;;;;5950122;23;20459;-46
2022/03/16 11:40:16;;;;;;;16.48;11.48;;;14.00;99.90;;;;;;6002074;23;20016;-47
2022/03/16 11:43:44;;;;;;;18.05;12.57;;;14.00;99.90;;;;;;5998184;23;20095;-46
2022/03/16 11:47:08;;;;;;;17.17;11.48;;;14.00;99.90;;;;;;6000134;23;20139;-48
2022/03/16 11:50:34;;;;;;;16.73;11.40;;;14.10;99.90;;;;;;5975605;23;20015;-48
2022/03/16 11:54:01;;;;;;;16.33;11.48;;;14.30;99.90;;;;;;5978121;23;20327;-45
2022/03/16 11:57:25;;;;;;;17.50;11.82;;;14.60;99.90;;;;;;5952374;23;20127;-47
2022/03/16 12:00:51;;;;;;;16.85;11.70;;;14.80;99.90;;;;;;5976882;23;20034;-48
2022/03/16 12:04:21;;;;;;;17.25;11.13;;;14.80;99.90;;;;;;6002931;23;20026;-47
2022/03/16 12:07:45;;;;;;;14.52;10.98;;;14.80;99.90;;;;;;5978824;23;20023;-46
2022/03/16 12:14:38;;;;;;;16.48;11.40;;;15.00;99.90;;;;;;6002301;23;20016;-46
2022/03/16 12:18:02;;;;;;;15.20;11.60;;;15.30;99.90;;;;;;5950093;23;20045;-46
2022/03/16 12:21:35;;;;;;;17.77;11.98;;;15.30;99.90;;;;;;5978368;23;20090;-46
2022/03/16 12:25:10;;;;;;;18.42;12.75;;;15.20;99.90;;;;;;6001084;23;20018;-46
2022/03/16 12:32:03;;;;;;;18.13;10.65;;;15.20;99.90;;;;;;5978273;23;20027;-46
2022/03/16 12:35:19;;;;;;;16.45;10.57;;;15.30;99.90;;;;;;6002853;23;20134;-48
2022/03/16 12:38:39;;;;;;;14.95;10.10;;;15.30;99.90;;;;;;5976844;23;20019;-49
2022/03/16 12:45:34;;;;;;;16.45;10.90;;;15.30;99.90;;;;;;5975894;23;20320;-47
2022/03/16 12:49:00;;;;;;;15.02;10.13;;;15.30;99.90;;;;;;5975803;23;20016;-48
2022/03/16 12:52:26;;;;;;;16.20;8.98;;;15.30;99.90;;;;;;5978744;23;20016;-48
2022/03/16 12:55:52;;;;;;;14.75;8.30;;;15.30;99.90;;;;;;5977080;23;20027;-49
2022/03/16 12:59:18;;;;;;;12.88;8.50;;;15.40;99.90;;;;;;5977241;23;20024;-47
2022/03/16 13:02:44;;;;;;;16.65;8.55;;;15.50;99.90;;;;;;5976085;23;20027;-47
2022/03/16 13:06:10;;;;;;;14.20;10.20;;;15.60;99.90;;;;;;5978626;23;20439;-47
2022/03/16 13:09:36;;;;;;;16.38;9.32;;;15.80;99.90;;;;;;5980029;23;20046;-46
2022/03/16 13:13:01;;;;;;;15.63;10.02;;;15.90;99.90;;;;;;6003037;23;20027;-46
2022/03/16 13:16:27;;;;;;;13.63;10.20;;;16.00;99.90;;;;;;5956585;23;20296;-47
2022/03/16 13:19:56;;;;;;;14.93;10.18;;;16.10;99.90;;;;;;6002194;23;20030;-48
2022/03/16 13:23:21;;;;;;;15.68;10.13;;;15.80;99.90;;;;;;6002558;23;20579;-46
2022/03/16 13:26:47;;;;;;;14.60;9.77;;;15.60;99.90;;;;;;5979593;23;20114;-47
2022/03/16 13:33:47;;;;;;;17.23;9.65;;;15.50;99.90;;;;;;6006367;23;20022;-46
2022/03/16 13:37:06;;;;;;;15.18;10.70;;;15.70;99.90;;;;;;6035066;23;20478;-46
2022/03/16 13:40:40;;;;;;;15.17;10.30;;;15.60;99.90;;;;;;6033479;23;20327;-47
2022/03/16 13:43:57;;;;;;;15.90;9.90;;;15.50;99.90;;;;;;5979692;23;20486;-48
2022/03/16 13:47:23;;;;;;;17.13;9.80;;;15.40;99.90;;;;;;6005855;23;20383;-47
2022/03/16 13:50:49;;;;;;;16.40;10.25;;;15.10;99.90;;;;;;6029090;23;20042;-49
2022/03/16 13:54:19;;;;;;;15.85;9.57;;;15.10;99.90;;;;;;6029719;23;20107;-47
2022/03/16 13:57:43;;;;;;;13.73;9.52;;;14.80;99.90;;;;;;6002111;23;20019;-46
2022/03/16 14:01:09;;;;;;;16.00;9.95;;;14.50;99.90;;;;;;6004552;23;20019;-47
2022/03/16 14:04:34;;;;;;;16.33;9.25;;;14.40;99.90;;;;;;6003321;23;20463;-47
2022/03/16 14:08:01;;;;;;;16.70;10.20;;;14.50;99.90;;;;;;6008251;23;20011;-45
2022/03/16 14:11:27;;;;;;;15.15;9.60;;;14.80;99.90;;;;;;6006842;23;20030;-46
2022/03/16 14:14:51;;;;;;;15.07;10.40;;;14.60;99.90;;;;;;5982810;23;20026;-46
2022/03/16 14:18:17;;;;;;;14.65;10.68;;;14.50;99.90;;;;;;5984810;23;20071;-45
2022/03/16 14:21:43;;;;;;;15.45;10.93;;;14.20;99.90;;;;;;6029687;23;20122;-46
2022/03/16 14:25:10;;;;;;;18.48;12.38;;;14.20;99.90;;;;;;6001975;23;20020;-45
2022/03/16 14:28:36;;;;;;;17.63;12.10;;;14.00;99.90;;;;;;6000473;23;20383;-44
2022/03/16 14:32:04;;;;;;;18.85;12.65;;;14.00;99.90;;;;;;6028706;23;20313;-46
2022/03/16 14:35:30;;;;;;;18.35;13.02;;;14.00;99.90;;;;;;6002988;23;20045;-44
2022/03/16 14:38:57;;;;;;;20.33;13.80;;;13.90;99.90;;;;;;5984057;23;20023;-45
2022/03/16 14:45:52;;;;;;;21.08;13.93;;;13.70;99.90;;;;;;6028844;23;20058;-44
2022/03/16 14:49:15;;;;;;;21.20;13.93;;;13.60;99.90;;;;;;6002474;23;20182;-47
2022/03/16 14:52:40;;;;;;;21.05;13.73;;;13.50;99.90;;;;;;6032667;23;20019;-46
2022/03/16 14:56:06;;;;;;;21.83;15.02;;;13.40;99.90;;;;;;6009132;23;20012;-46
2022/03/16 14:59:32;;;;;;;20.65;14.85;;;13.40;99.90;;;;;;6005284;23;20115;-47
2022/03/16 15:06:30;;;;;;;22.17;14.30;;;13.30;99.90;;;;;;6027374;23;20509;-46
2022/03/16 15:09:48;;;;;;;21.88;14.23;;;13.30;99.90;;;;;;6001439;23;20449;-46
2022/03/16 15:13:15;;;;;;;22.52;14.23;;;13.30;99.90;;;;;;6002893;23;20074;-45
2022/03/16 15:16:41;;;;;;;21.90;14.25;;;13.20;99.90;;;;;;6001554;23;20042;-47
2022/03/16 15:20:07;;;;;;;23.52;15.00;;;13.20;99.90;;;;;;6001846;23;20051;-44
2022/03/16 15:23:32;;;;;;;22.27;15.25;;;13.20;99.90;;;;;;6026594;23;20023;-46
2022/03/16 15:57:55;;;;;;;19.90;14.73;;;12.90;99.90;;;;;;6003716;23;20023;-46
2022/03/16 16:07:14;;;;;;;21.02;14.48;;;12.80;99.90;;;;;;6031517;23;20050;-46
2022/03/16 16:10:16;;;;;;;20.67;13.88;;;12.70;99.90;;;;;;6019580;23;20086;-45
2022/03/16 16:13:25;;;;;;;21.38;14.55;;;12.70;99.90;;;;;;5978386;23;20464;-45
2022/03/16 16:16:48;;;;;;;20.90;13.98;;;12.60;99.90;;;;;;5975424;23;20275;-46
2022/03/16 16:23:39;;;;;;;21.65;14.63;;;12.50;99.90;;;;;;6000828;23;20027;-44
2022/03/16 16:30:38;;;;;;;20.65;14.25;;;12.40;99.90;;;;;;6027234;23;20023;-45
2022/03/16 16:33:58;;;;;;;21.40;15.13;;;12.30;99.90;;;;;;5978754;23;20098;-45
2022/03/16 16:37:24;;;;;;;23.48;15.00;;;12.30;99.90;;;;;;6003109;23;20042;-45
2022/03/16 16:40:51;;;;;;;20.02;13.93;;;12.20;99.90;;;;;;5977844;23;20054;-45
2022/03/16 16:44:16;;;;;;;24.13;14.57;;;12.10;99.90;;;;;;5976072;23;20466;-45
2022/03/16 16:47:42;;;;;;;22.88;15.00;;;12.10;99.90;;;;;;5980667;23;20059;-45
2022/03/16 17:07:16;;;;;;;23.50;14.68;;;11.70;99.90;;;;;;6000103;23;20520;-44
2022/03/16 17:10:04;;;;;;;21.05;14.15;;;11.60;99.90;;;;;;6002837;23;20090;-45
2022/03/16 17:51:14;;;;;;;21.23;13.45;;;11.00;99.90;;;;;;6001757;23;20484;-44
2022/03/16 18:31:24;;;;;;;17.13;10.55;;;10.80;99.90;;;;;;6030711;23;20236;-45
2022/03/16 18:34:12;;;;;;;18.42;9.98;;;10.70;99.90;;;;;;5979492;23;20023;-45
2022/03/16 18:54:46;;;;;;;15.20;9.55;;;10.40;99.90;;;;;;6030561;23;20130;-44
2022/03/16 19:56:42;;;;;;;17.75;11.77;;;10.40;99.90;;;;;;6027824;23;20020;-44
2022/03/16 20:00:04;;;;;;;22.80;12.68;;;10.40;99.90;;;;;;6002782;23;20090;-44
2022/03/16 20:30:59;;;;;;;22.60;13.85;;;10.30;99.90;;;;;;6001500;23;20027;-44
2022/03/16 20:34:24;;;;;;;21.08;12.70;;;10.30;99.90;;;;;;5977649;23;20457;-44
2022/03/16 20:41:37;;;;;;;20.38;14.05;;;10.30;99.90;;;;;;6025684;23;20018;-45
2022/03/16 20:44:54;;;;;;;21.85;12.80;;;10.30;99.90;;;;;;5998560;23;20034;-43
2022/03/16 20:48:10;;;;;;;22.23;13.45;;;10.30;99.90;;;;;;5999501;23;20023;-44
2022/03/16 20:51:37;;;;;;;22.50;13.15;;;10.30;99.90;;;;;;6003260;23;20319;-44
2022/03/16 20:55:00;;;;;;;23.02;13.68;;;10.30;99.90;;;;;;6001682;23;20031;-44
2022/03/16 21:01:53;;;;;;;20.05;13.48;;;10.20;99.90;;;;;;6028807;23;20051;-44
2022/03/16 21:05:19;;;;;;;26.08;14.20;;;10.20;99.90;;;;;;6027045;23;20481;-44
2022/03/16 21:08:46;;;;;;;21.45;14.43;;;10.30;99.90;;;;;;6004084;23;20019;-44
2022/03/16 21:12:13;;;;;;;24.85;14.65;;;10.30;99.90;;;;;;6004330;23;20023;-44
2022/03/16 21:15:41;;;;;;;23.48;15.00;;;10.20;99.90;;;;;;6000922;23;20080;-44
2022/03/16 21:19:02;;;;;;;24.67;14.90;;;10.20;99.90;;;;;;6003048;23;20477;-43
2022/03/16 21:28:23;;;;;;;22.02;14.18;;;10.20;99.90;;;;;;6030031;23;20035;-43
2022/03/16 21:31:05;;;;;;;21.33;14.77;;;10.20;99.90;;;;;;6000868;23;20323;-44
2022/03/16 21:43:22;;;;;;;24.52;15.45;;;10.10;99.90;;;;;;6001785;23;20490;-44
2022/03/16 21:46:31;;;;;;;26.25;15.85;;;10.20;99.90;;;;;;6000999;23;20142;-44
2022/03/16 22:03:45;;;;;;;23.85;15.18;;;10.20;99.90;;;;;;6001459;23;20456;-44
2022/03/16 22:07:09;;;;;;;25.60;16.55;;;10.20;99.90;;;;;;5999675;23;20065;-44
2022/03/16 22:31:09;;;;;;;25.42;17.00;;;10.20;99.90;;;;;;5923526;24;20203;-43
2022/03/16 22:34:34;;;;;;;23.73;15.68;;;10.10;99.90;;;;;;5920179;24;20028;-43
2022/03/16 22:41:31;;;;;;;29.58;16.60;;;10.00;99.90;;;;;;5941372;24;20147;-44
2022/03/16 22:44:53;;;;;;;25.60;16.65;;;10.10;99.90;;;;;;5941189;24;20020;-43
2022/03/16 22:48:20;;;;;;;24.00;16.25;;;10.10;99.90;;;;;;5983833;23;20450;-44
2022/03/16 22:51:46;;;;;;;25.08;16.92;;;10.10;99.90;;;;;;5975520;23;20026;-44
2022/03/16 22:55:12;;;;;;;25.42;16.05;;;10.00;99.90;;;;;;5977994;23;20019;-43
2022/03/16 22:58:40;;;;;;;28.63;16.05;;;10.10;99.90;;;;;;6003216;23;20447;-45
2022/03/16 23:02:06;;;;;;;25.48;15.68;;;10.10;99.90;;;;;;5975947;23;20019;-44
2022/03/16 23:05:33;;;;;;;28.00;17.58;;;10.10;99.90;;;;;;5953696;23;20024;-43
2022/03/16 23:09:00;;;;;;;24.95;15.88;;;10.10;99.90;;;;;;5975034;23;20024;-44
2022/03/16 23:12:24;;;;;;;28.75;17.40;;;10.00;99.90;;;;;;5975410;23;20457;-44
2022/03/16 23:15:51;;;;;;;24.13;15.52;;;10.10;99.90;;;;;;5998662;23;20031;-43
2022/03/16 23:19:16;;;;;;;26.13;17.17;;;10.00;99.90;;;;;;5999547;23;20091;-46
2022/03/16 23:22:41;;;;;;;29.27;18.25;;;10.00;99.90;;;;;;6002549;23;20086;-44
2022/03/16 23:26:10;;;;;;;27.70;17.60;;;10.00;99.90;;;;;;5978002;23;20083;-46
2022/03/16 23:29:34;;;;;;;25.55;17.35;;;10.00;99.90;;;;;;5973780;23;20651;-45
2022/03/16 23:36:37;;;;;;;29.25;17.65;;;9.90;99.90;;;;;;5997190;23;20035;-44
2022/03/16 23:39:55;;;;;;;24.25;17.15;;;9.90;99.90;;;;;;5976470;23;20023;-43
2022/03/16 23:43:21;;;;;;;27.65;17.48;;;9.90;99.90;;;;;;6000793;23;20098;-44
2022/03/16 23:46:44;;;;;;;27.15;17.55;;;9.90;99.90;;;;;;5977202;23;20082;-43
2022/03/16 23:50:17;;;;;;;27.40;18.38;;;9.90;99.90;;;;;;5977749;23;20018;-46
2022/03/16 23:53:37;;;;;;;26.95;17.67;;;9.80;99.90;;;;;;5975235;23;20019;-45
